sensor_id;sensor_type;location;lat;lon;timestamp;pressure;altitude;pressure_sealevel;temperature;humidity
53300;BME280;39187;48.476;8.310;2023-02-14T00:00:50;92809.56;;;5.98;60.84
53300;BME280;39187;48.476;8.310;2023-02-14T00:03:16;92801.66;;;5.98;60.64
53300;BME280;39187;48.476;8.310;2023-02-14T00:05:42;92803.84;;;5.96;60.55
53300;BME280;39187;48.476;8.310;2023-02-14T00:08:07;92792.63;;;5.99;60.51
53300;BME280;39187;48.476;8.310;2023-02-14T00:10:34;92797.56;;;6.00;61.27
53300;BME280;39187;48.476;8.310;2023-02-14T00:12:59;92792.94;;;5.97;60.78
53300;BME280;39187;48.476;8.310;2023-02-14T00:15:24;92789.63;;;6.00;60.44
53300;BME280;39187;48.476;8.310;2023-02-14T00:17:52;92785.50;;;6.03;60.48
53300;BME280;39187;48.476;8.310;2023-02-14T00:20:24;92782.09;;;6.02;60.81
53300;BME280;39187;48.476;8.310;2023-02-14T00:22:50;92780.66;;;6.05;61.17
53300;BME280;39187;48.476;8.310;2023-02-14T00:25:16;92786.78;;;6.09;60.97
53300;BME280;39187;48.476;8.310;2023-02-14T00:27:42;92783.44;;;6.12;60.67
53300;BME280;39187;48.476;8.310;2023-02-14T00:30:09;92778.59;;;6.14;61.13
53300;BME280;39187;48.476;8.310;2023-02-14T00:32:39;92783.94;;;6.18;60.63
53300;BME280;39187;48.476;8.310;2023-02-14T00:35:06;92781.28;;;6.18;61.30
53300;BME280;39187;48.476;8.310;2023-02-14T00:37:32;92783.16;;;6.17;61.24
53300;BME280;39187;48.476;8.310;2023-02-14T00:39:58;92780.47;;;6.14;61.44
53300;BME280;39187;48.476;8.310;2023-02-14T00:42:23;92780.09;;;6.15;61.41
53300;BME280;39187;48.476;8.310;2023-02-14T00:44:49;92768.09;;;6.18;61.03
53300;BME280;39187;48.476;8.310;2023-02-14T00:47:14;92765.44;;;6.18;60.99
53300;BME280;39187;48.476;8.310;2023-02-14T00:49:40;92769.19;;;6.17;60.76
53300;BME280;39187;48.476;8.310;2023-02-14T00:52:05;92763.56;;;6.18;61.13
53300;BME280;39187;48.476;8.310;2023-02-14T00:54:31;92771.50;;;6.18;61.06
53300;BME280;39187;48.476;8.310;2023-02-14T00:56:57;92763.91;;;6.17;60.98
53300;BME280;39187;48.476;8.310;2023-02-14T00:59:22;92770.78;;;6.21;61.13
53300;BME280;39187;48.476;8.310;2023-02-14T01:01:48;92768.91;;;6.22;61.26
53300;BME280;39187;48.476;8.310;2023-02-14T01:04:13;92770.78;;;6.21;60.79
53300;BME280;39187;48.476;8.310;2023-02-14T01:06:39;92766.25;;;6.22;61.24
53300;BME280;39187;48.476;8.310;2023-02-14T01:09:04;92764.38;;;6.22;61.17
53300;BME280;39187;48.476;8.310;2023-02-14T01:11:30;92771.22;;;6.23;61.01
53300;BME280;39187;48.476;8.310;2023-02-14T01:13:56;92770.88;;;6.25;60.23
53300;BME280;39187;48.476;8.310;2023-02-14T01:16:23;92777.25;;;6.24;60.23
53300;BME280;39187;48.476;8.310;2023-02-14T01:18:49;92781.72;;;6.20;60.39
53300;BME280;39187;48.476;8.310;2023-02-14T01:21:25;92778.66;;;6.18;60.81
53300;BME280;39187;48.476;8.310;2023-02-14T01:23:53;92783.59;;;6.19;60.74
53300;BME280;39187;48.476;8.310;2023-02-14T01:26:20;92782.06;;;6.18;60.43
53300;BME280;39187;48.476;8.310;2023-02-14T01:28:46;92774.91;;;6.19;60.24
53300;BME280;39187;48.476;8.310;2023-02-14T01:31:19;92776.69;;;6.15;60.23
53300;BME280;39187;48.476;8.310;2023-02-14T01:33:46;92775.25;;;6.17;60.43
53300;BME280;39187;48.476;8.310;2023-02-14T01:36:20;92768.84;;;6.18;59.93
53300;BME280;39187;48.476;8.310;2023-02-14T01:38:46;92769.63;;;6.19;60.22
53300;BME280;39187;48.476;8.310;2023-02-14T01:41:12;92769.28;;;6.20;60.24
53300;BME280;39187;48.476;8.310;2023-02-14T01:43:53;92764.75;;;6.21;59.47
53300;BME280;39187;48.476;8.310;2023-02-14T01:46:19;92766.97;;;6.19;59.87
53300;BME280;39187;48.476;8.310;2023-02-14T01:48:45;92767.66;;;6.16;59.51
53300;BME280;39187;48.476;8.310;2023-02-14T01:51:11;92769.53;;;6.15;59.25
53300;BME280;39187;48.476;8.310;2023-02-14T01:53:38;92763.84;;;6.13;59.39
53300;BME280;39187;48.476;8.310;2023-02-14T01:56:08;92767.31;;;6.17;59.26
53300;BME280;39187;48.476;8.310;2023-02-14T01:58:37;92764.00;;;6.20;59.28
53300;BME280;39187;48.476;8.310;2023-02-14T02:01:12;92760.97;;;6.22;58.44
53300;BME280;39187;48.476;8.310;2023-02-14T02:03:45;92766.69;;;6.24;58.65
53300;BME280;39187;48.476;8.310;2023-02-14T02:09:02;92755.00;;;6.25;58.29
53300;BME280;39187;48.476;8.310;2023-02-14T02:11:31;92753.91;;;6.26;58.26
53300;BME280;39187;48.476;8.310;2023-02-14T02:13:57;92754.66;;;6.26;58.17
53300;BME280;39187;48.476;8.310;2023-02-14T02:17:07;92752.69;;;6.23;57.58
53300;BME280;39187;48.476;8.310;2023-02-14T02:30:34;92743.19;;;6.19;58.09
53300;BME280;39187;48.476;8.310;2023-02-14T02:41:39;92748.53;;;6.22;57.01
53300;BME280;39187;48.476;8.310;2023-02-14T02:44:23;92745.13;;;6.22;56.92
53300;BME280;39187;48.476;8.310;2023-02-14T02:47:03;92744.00;;;6.23;56.21
53300;BME280;39187;48.476;8.310;2023-02-14T02:50:04;92752.03;;;6.26;56.10
53300;BME280;39187;48.476;8.310;2023-02-14T02:53:06;92753.28;;;6.32;55.62
53300;BME280;39187;48.476;8.310;2023-02-14T02:55:44;92742.69;;;6.32;55.31
53300;BME280;39187;48.476;8.310;2023-02-14T02:58:39;92743.50;;;6.36;54.10
53300;BME280;39187;48.476;8.310;2023-02-14T03:01:16;92739.00;;;6.37;53.77
53300;BME280;39187;48.476;8.310;2023-02-14T03:03:45;92750.75;;;6.39;54.03
53300;BME280;39187;48.476;8.310;2023-02-14T03:06:31;92746.97;;;6.40;53.24
53300;BME280;39187;48.476;8.310;2023-02-14T03:14:53;92742.13;;;6.42;53.46
53300;BME280;39187;48.476;8.310;2023-02-14T03:20:39;92739.47;;;6.42;53.38
53300;BME280;39187;48.476;8.310;2023-02-14T03:23:19;92733.84;;;6.44;52.71
53300;BME280;39187;48.476;8.310;2023-02-14T03:26:19;92735.38;;;6.45;52.53
53300;BME280;39187;48.476;8.310;2023-02-14T03:37:10;92727.97;;;6.54;53.12
53300;BME280;39187;48.476;8.310;2023-02-14T03:42:29;92726.09;;;6.55;52.84
53300;BME280;39187;48.476;8.310;2023-02-14T03:44:58;92728.06;;;6.58;53.16
53300;BME280;39187;48.476;8.310;2023-02-14T03:47:28;92729.94;;;6.57;52.82
53300;BME280;39187;48.476;8.310;2023-02-14T03:50:00;92727.72;;;6.59;52.43
53300;BME280;39187;48.476;8.310;2023-02-14T03:52:27;92728.81;;;6.58;52.41
53300;BME280;39187;48.476;8.310;2023-02-14T03:54:56;92721.28;;;6.60;52.31
53300;BME280;39187;48.476;8.310;2023-02-14T03:57:34;92717.53;;;6.61;52.68
53300;BME280;39187;48.476;8.310;2023-02-14T04:00:03;92723.16;;;6.60;52.48
53300;BME280;39187;48.476;8.310;2023-02-14T04:02:34;92712.22;;;6.61;51.95
53300;BME280;39187;48.476;8.310;2023-02-14T04:05:04;92711.47;;;6.61;51.69
53300;BME280;39187;48.476;8.310;2023-02-14T04:07:43;92719.06;;;6.62;50.75
53300;BME280;39187;48.476;8.310;2023-02-14T04:10:09;92717.88;;;6.60;50.61
53300;BME280;39187;48.476;8.310;2023-02-14T04:12:35;92716.75;;;6.61;50.71
53300;BME280;39187;48.476;8.310;2023-02-14T04:15:00;92724.34;;;6.62;50.18
53300;BME280;39187;48.476;8.310;2023-02-14T04:17:26;92722.41;;;6.59;50.32
53300;BME280;39187;48.476;8.310;2023-02-14T04:20:10;92725.53;;;6.65;49.66
53300;BME280;39187;48.476;8.310;2023-02-14T04:22:36;92719.81;;;6.63;50.35
53300;BME280;39187;48.476;8.310;2023-02-14T04:25:01;92717.94;;;6.63;49.75
53300;BME280;39187;48.476;8.310;2023-02-14T04:27:27;92721.34;;;6.64;49.72
53300;BME280;39187;48.476;8.310;2023-02-14T04:29:52;92722.91;;;6.65;50.31
53300;BME280;39187;48.476;8.310;2023-02-14T04:32:20;92717.59;;;6.65;49.89
53300;BME280;39187;48.476;8.310;2023-02-14T04:34:46;92721.75;;;6.66;49.60
53300;BME280;39187;48.476;8.310;2023-02-14T04:37:12;92723.66;;;6.65;49.40
53300;BME280;39187;48.476;8.310;2023-02-14T04:39:37;92722.91;;;6.65;50.04
53300;BME280;39187;48.476;8.310;2023-02-14T04:42:04;92721.41;;;6.67;50.05
53300;BME280;39187;48.476;8.310;2023-02-14T04:44:30;92724.47;;;6.69;49.93
53300;BME280;39187;48.476;8.310;2023-02-14T04:46:58;92724.06;;;6.67;49.44
53300;BME280;39187;48.476;8.310;2023-02-14T04:49:23;92719.53;;;6.68;49.59
53300;BME280;39187;48.476;8.310;2023-02-14T04:51:49;92721.41;;;6.67;50.36
53300;BME280;39187;48.476;8.310;2023-02-14T04:54:14;92718.47;;;6.72;49.78
53300;BME280;39187;48.476;8.310;2023-02-14T04:56:40;92718.13;;;6.74;50.05
53300;BME280;39187;48.476;8.310;2023-02-14T04:59:05;92718.13;;;6.74;50.30
53300;BME280;39187;48.476;8.310;2023-02-14T05:01:31;92715.47;;;6.74;49.98
53300;BME280;39187;48.476;8.310;2023-02-14T05:03:56;92724.19;;;6.74;50.00
53300;BME280;39187;48.476;8.310;2023-02-14T05:06:22;92716.19;;;6.71;50.17
53300;BME280;39187;48.476;8.310;2023-02-14T05:08:48;92725.59;;;6.68;49.95
53300;BME280;39187;48.476;8.310;2023-02-14T05:11:13;92721.28;;;6.60;50.77
53300;BME280;39187;48.476;8.310;2023-02-14T05:13:39;92717.47;;;6.58;51.12
53300;BME280;39187;48.476;8.310;2023-02-14T05:16:05;92717.06;;;6.56;50.85
53300;BME280;39187;48.476;8.310;2023-02-14T05:18:30;92719.22;;;6.50;50.71
53300;BME280;39187;48.476;8.310;2023-02-14T05:20:56;92719.72;;;6.36;51.36
53300;BME280;39187;48.476;8.310;2023-02-14T05:23:22;92725.69;;;6.53;51.23
53300;BME280;39187;48.476;8.310;2023-02-14T05:25:48;92724.16;;;6.52;51.35
53300;BME280;39187;48.476;8.310;2023-02-14T05:28:14;92722.16;;;6.45;51.16
53300;BME280;39187;48.476;8.310;2023-02-14T05:30:40;92723.56;;;6.39;52.03
53300;BME280;39187;48.476;8.310;2023-02-14T05:33:06;92722.03;;;6.38;51.51
53300;BME280;39187;48.476;8.310;2023-02-14T05:35:31;92723.81;;;6.34;51.69
53300;BME280;39187;48.476;8.310;2023-02-14T05:37:57;92721.53;;;6.32;51.98
53300;BME280;39187;48.476;8.310;2023-02-14T05:40:23;92721.13;;;6.30;51.79
53300;BME280;39187;48.476;8.310;2023-02-14T05:42:48;92724.09;;;6.29;52.30
53300;BME280;39187;48.476;8.310;2023-02-14T05:45:15;92723.34;;;6.28;52.23
53300;BME280;39187;48.476;8.310;2023-02-14T05:47:41;92724.03;;;6.25;52.02
53300;BME280;39187;48.476;8.310;2023-02-14T05:50:07;92732.31;;;6.24;52.87
53300;BME280;39187;48.476;8.310;2023-02-14T05:52:36;92726.34;;;6.27;53.39
53300;BME280;39187;48.476;8.310;2023-02-14T05:55:02;92732.75;;;6.26;53.82
53300;BME280;39187;48.476;8.310;2023-02-14T05:57:28;92733.16;;;6.28;53.97
53300;BME280;39187;48.476;8.310;2023-02-14T05:59:53;92728.56;;;6.25;53.65
53300;BME280;39187;48.476;8.310;2023-02-14T06:02:19;92728.56;;;6.25;54.44
53300;BME280;39187;48.476;8.310;2023-02-14T06:04:44;92724.38;;;6.24;54.10
53300;BME280;39187;48.476;8.310;2023-02-14T06:07:10;92734.53;;;6.22;54.82
53300;BME280;39187;48.476;8.310;2023-02-14T06:09:35;92733.03;;;6.21;54.58
53300;BME280;39187;48.476;8.310;2023-02-14T06:12:01;92734.19;;;6.23;55.60
53300;BME280;39187;48.476;8.310;2023-02-14T06:14:26;92737.94;;;6.22;55.72
53300;BME280;39187;48.476;8.310;2023-02-14T06:16:52;92735.03;;;6.27;56.24
53300;BME280;39187;48.476;8.310;2023-02-14T06:19:17;92732.47;;;6.31;55.77
53300;BME280;39187;48.476;8.310;2023-02-14T06:21:43;92734.34;;;6.30;56.13
53300;BME280;39187;48.476;8.310;2023-02-14T06:24:08;92735.53;;;6.33;56.70
53300;BME280;39187;48.476;8.310;2023-02-14T06:26:34;92738.56;;;6.35;56.85
53300;BME280;39187;48.476;8.310;2023-02-14T06:29:02;92743.84;;;6.35;56.86
53300;BME280;39187;48.476;8.310;2023-02-14T06:31:27;92740.88;;;6.36;56.47
53300;BME280;39187;48.476;8.310;2023-02-14T06:33:54;92738.66;;;6.38;56.87
53300;BME280;39187;48.476;8.310;2023-02-14T06:36:20;92734.13;;;6.39;57.17
53300;BME280;39187;48.476;8.310;2023-02-14T06:38:47;92737.94;;;6.41;57.21
53300;BME280;39187;48.476;8.310;2023-02-14T06:41:13;92732.38;;;6.47;56.70
53300;BME280;39187;48.476;8.310;2023-02-14T06:43:44;92733.75;;;6.60;56.72
53300;BME280;39187;48.476;8.310;2023-02-14T06:46:13;92737.13;;;6.79;56.43
53300;BME280;39187;48.476;8.310;2023-02-14T06:48:39;92743.47;;;6.98;56.27
53300;BME280;39187;48.476;8.310;2023-02-14T06:51:05;92738.22;;;7.24;56.01
53300;BME280;39187;48.476;8.310;2023-02-14T06:53:30;92741.63;;;7.47;55.75
53300;BME280;39187;48.476;8.310;2023-02-14T06:55:56;92748.09;;;7.76;55.64
53300;BME280;39187;48.476;8.310;2023-02-14T06:58:21;92749.63;;;8.07;54.78
53300;BME280;39187;48.476;8.310;2023-02-14T07:00:47;92750.47;;;8.41;54.34
53300;BME280;39187;48.476;8.310;2023-02-14T07:03:12;92745.56;;;8.76;53.55
53300;BME280;39187;48.476;8.310;2023-02-14T07:05:38;92753.09;;;9.11;53.13
53300;BME280;39187;48.476;8.310;2023-02-14T07:08:04;92758.41;;;9.55;51.11
53300;BME280;39187;48.476;8.310;2023-02-14T07:10:32;92751.50;;;10.02;49.53
53300;BME280;39187;48.476;8.310;2023-02-14T07:12:59;92739.53;;;10.36;48.18
53300;BME280;39187;48.476;8.310;2023-02-14T07:15:24;92752.22;;;10.82;47.30
53300;BME280;39187;48.476;8.310;2023-02-14T07:17:50;92747.38;;;11.23;45.78
53300;BME280;39187;48.476;8.310;2023-02-14T07:20:15;92746.66;;;11.58;45.30
53300;BME280;39187;48.476;8.310;2023-02-14T07:22:42;92747.78;;;12.03;44.16
53300;BME280;39187;48.476;8.310;2023-02-14T07:25:08;92748.06;;;12.37;45.04
53300;BME280;39187;48.476;8.310;2023-02-14T07:27:34;92746.72;;;12.80;43.33
53300;BME280;39187;48.476;8.310;2023-02-14T07:30:00;92754.19;;;13.24;41.82
53300;BME280;39187;48.476;8.310;2023-02-14T07:32:26;92748.19;;;13.61;40.59
53300;BME280;39187;48.476;8.310;2023-02-14T07:34:51;92738.72;;;13.94;39.89
53300;BME280;39187;48.476;8.310;2023-02-14T07:37:17;92739.25;;;14.20;38.93
53300;BME280;39187;48.476;8.310;2023-02-14T07:39:44;92740.94;;;14.44;38.48
53300;BME280;39187;48.476;8.310;2023-02-14T07:42:10;92737.69;;;14.60;37.96
53300;BME280;39187;48.476;8.310;2023-02-14T07:44:36;92730.16;;;14.81;37.48
53300;BME280;39187;48.476;8.310;2023-02-14T07:47:08;92730.97;;;15.05;37.16
53300;BME280;39187;48.476;8.310;2023-02-14T07:49:34;92725.41;;;15.23;36.57
53300;BME280;39187;48.476;8.310;2023-02-14T07:52:01;92731.66;;;15.40;35.92
53300;BME280;39187;48.476;8.310;2023-02-14T07:54:27;92725.28;;;15.57;36.03
53300;BME280;39187;48.476;8.310;2023-02-14T07:56:52;92726.94;;;15.74;35.65
53300;BME280;39187;48.476;8.310;2023-02-14T07:59:18;92721.69;;;15.90;35.12
53300;BME280;39187;48.476;8.310;2023-02-14T08:01:43;92720.56;;;16.11;34.85
53300;BME280;39187;48.476;8.310;2023-02-14T08:04:09;92725.63;;;16.29;35.45
53300;BME280;39187;48.476;8.310;2023-02-14T08:06:38;92719.91;;;16.47;34.51
53300;BME280;39187;48.476;8.310;2023-02-14T08:09:04;92722.72;;;16.63;33.62
53300;BME280;39187;48.476;8.310;2023-02-14T08:11:30;92723.25;;;16.74;33.07
53300;BME280;39187;48.476;8.310;2023-02-14T08:14:14;92711.38;;;16.91;32.83
53300;BME280;39187;48.476;8.310;2023-02-14T08:16:39;92719.69;;;16.97;32.53
53300;BME280;39187;48.476;8.310;2023-02-14T08:19:05;92730.06;;;16.78;33.17
53300;BME280;39187;48.476;8.310;2023-02-14T08:21:30;92726.69;;;16.94;32.60
53300;BME280;39187;48.476;8.310;2023-02-14T08:23:56;92724.81;;;16.91;32.42
53300;BME280;39187;48.476;8.310;2023-02-14T08:26:22;92718.72;;;17.07;32.32
53300;BME280;39187;48.476;8.310;2023-02-14T08:28:47;92724.13;;;17.23;32.26
53300;BME280;39187;48.476;8.310;2023-02-14T08:31:29;92715.50;;;17.48;31.71
53300;BME280;39187;48.476;8.310;2023-02-14T08:33:55;92718.38;;;17.57;31.53
53300;BME280;39187;48.476;8.310;2023-02-14T08:36:21;92720.78;;;17.71;31.21
53300;BME280;39187;48.476;8.310;2023-02-14T08:38:47;92718.59;;;17.82;31.03
53300;BME280;39187;48.476;8.310;2023-02-14T08:41:17;92725.97;;;17.94;30.70
53300;BME280;39187;48.476;8.310;2023-02-14T08:43:44;92727.69;;;18.05;30.79
53300;BME280;39187;48.476;8.310;2023-02-14T08:46:10;92720.44;;;18.01;30.62
53300;BME280;39187;48.476;8.310;2023-02-14T08:48:37;92721.25;;;18.15;30.49
53300;BME280;39187;48.476;8.310;2023-02-14T08:51:06;92724.47;;;18.10;30.28
53300;BME280;39187;48.476;8.310;2023-02-14T08:53:33;92722.09;;;18.12;30.33
53300;BME280;39187;48.476;8.310;2023-02-14T08:56:03;92729.03;;;17.96;30.51
53300;BME280;39187;48.476;8.310;2023-02-14T08:58:29;92727.06;;;18.13;30.44
53300;BME280;39187;48.476;8.310;2023-02-14T09:00:55;92727.28;;;18.19;30.17
53300;BME280;39187;48.476;8.310;2023-02-14T09:03:20;92723.66;;;18.25;30.02
53300;BME280;39187;48.476;8.310;2023-02-14T09:05:46;92718.97;;;18.29;30.28
53300;BME280;39187;48.476;8.310;2023-02-14T09:08:11;92724.66;;;18.31;30.54
53300;BME280;39187;48.476;8.310;2023-02-14T09:10:37;92720.13;;;18.28;30.71
53300;BME280;39187;48.476;8.310;2023-02-14T09:13:03;92718.63;;;18.27;30.51
53300;BME280;39187;48.476;8.310;2023-02-14T09:15:28;92719.84;;;17.94;30.51
53300;BME280;39187;48.476;8.310;2023-02-14T09:17:54;92713.94;;;17.99;30.42
53300;BME280;39187;48.476;8.310;2023-02-14T09:20:20;92717.91;;;17.94;29.76
53300;BME280;39187;48.476;8.310;2023-02-14T09:22:45;92718.69;;;17.27;31.03
53300;BME280;39187;48.476;8.310;2023-02-14T09:25:11;92718.13;;;17.51;30.29
53300;BME280;39187;48.476;8.310;2023-02-14T09:27:37;92708.91;;;17.69;29.58
53300;BME280;39187;48.476;8.310;2023-02-14T09:30:05;92710.25;;;17.60;30.84
53300;BME280;39187;48.476;8.310;2023-02-14T09:32:31;92707.63;;;17.73;30.52
53300;BME280;39187;48.476;8.310;2023-02-14T09:34:57;92711.53;;;17.72;30.23
53300;BME280;39187;48.476;8.310;2023-02-14T09:37:22;92713.72;;;17.77;30.22
53300;BME280;39187;48.476;8.310;2023-02-14T09:39:48;92710.00;;;17.71;30.22
53300;BME280;39187;48.476;8.310;2023-02-14T09:42:39;92707.47;;;17.64;29.34
53300;BME280;39187;48.476;8.310;2023-02-14T09:45:10;92703.94;;;17.67;29.37
53300;BME280;39187;48.476;8.310;2023-02-14T09:47:50;92703.63;;;17.29;29.81
53300;BME280;39187;48.476;8.310;2023-02-14T09:52:42;92706.72;;;17.80;29.71
53300;BME280;39187;48.476;8.310;2023-02-14T09:55:13;92700.31;;;17.74;29.59
53300;BME280;39187;48.476;8.310;2023-02-14T10:00:55;92700.66;;;17.76;30.03
53300;BME280;39187;48.476;8.310;2023-02-14T10:06:37;92701.41;;;17.92;28.79
53300;BME280;39187;48.476;8.310;2023-02-14T10:12:26;92692.69;;;17.72;29.41
53300;BME280;39187;48.476;8.310;2023-02-14T10:14:56;92696.72;;;17.64;29.29
53300;BME280;39187;48.476;8.310;2023-02-14T10:17:39;92694.69;;;17.16;29.21
53300;BME280;39187;48.476;8.310;2023-02-14T10:21:10;92686.63;;;17.16;29.22
53300;BME280;39187;48.476;8.310;2023-02-14T10:23:35;92684.41;;;17.47;28.26
53300;BME280;39187;48.476;8.310;2023-02-14T10:26:15;92690.16;;;16.77;29.20
53300;BME280;39187;48.476;8.310;2023-02-14T10:28:46;92695.03;;;16.23;30.42
53300;BME280;39187;48.476;8.310;2023-02-14T10:31:40;92692.63;;;16.48;29.85
53300;BME280;39187;48.476;8.310;2023-02-14T10:34:13;92684.78;;;16.77;29.71
53300;BME280;39187;48.476;8.310;2023-02-14T10:37:02;92682.28;;;16.47;30.08
53300;BME280;39187;48.476;8.310;2023-02-14T10:39:47;92683.16;;;16.20;30.23
53300;BME280;39187;48.476;8.310;2023-02-14T10:45:19;92674.63;;;16.06;30.96
53300;BME280;39187;48.476;8.310;2023-02-14T10:50:24;92672.16;;;15.21;32.33
53300;BME280;39187;48.476;8.310;2023-02-14T10:55:55;92664.66;;;15.09;32.70
53300;BME280;39187;48.476;8.310;2023-02-14T10:58:26;92663.91;;;15.09;32.46
53300;BME280;39187;48.476;8.310;2023-02-14T11:03:27;92664.97;;;15.15;33.01
53300;BME280;39187;48.476;8.310;2023-02-14T11:05:54;92661.88;;;15.16;32.90
53300;BME280;39187;48.476;8.310;2023-02-14T11:08:36;92658.94;;;15.07;33.21
53300;BME280;39187;48.476;8.310;2023-02-14T11:13:37;92644.31;;;14.24;34.70
53300;BME280;39187;48.476;8.310;2023-02-14T11:21:37;92646.31;;;14.17;34.79
53300;BME280;39187;48.476;8.310;2023-02-14T11:24:21;92640.47;;;13.91;35.12
53300;BME280;39187;48.476;8.310;2023-02-14T11:26:50;92642.44;;;13.46;36.08
53300;BME280;39187;48.476;8.310;2023-02-14T11:29:50;92637.09;;;13.46;36.58
53300;BME280;39187;48.476;8.310;2023-02-14T11:32:20;92642.22;;;13.27;36.78
53300;BME280;39187;48.476;8.310;2023-02-14T11:35:22;92641.13;;;13.24;36.91
53300;BME280;39187;48.476;8.310;2023-02-14T11:37:49;92637.69;;;13.23;36.57
53300;BME280;39187;48.476;8.310;2023-02-14T11:42:57;92628.03;;;13.37;36.15
53300;BME280;39187;48.476;8.310;2023-02-14T11:45:35;92631.25;;;13.58;35.67
53300;BME280;39187;48.476;8.310;2023-02-14T11:50:57;92632.50;;;13.47;35.58
53300;BME280;39187;48.476;8.310;2023-02-14T11:53:37;92629.63;;;13.27;35.68
53300;BME280;39187;48.476;8.310;2023-02-14T11:56:04;92630.13;;;13.11;36.54
53300;BME280;39187;48.476;8.310;2023-02-14T11:58:55;92630.66;;;12.89;36.88
53300;BME280;39187;48.476;8.310;2023-02-14T12:01:32;92615.22;;;13.14;36.55
53300;BME280;39187;48.476;8.310;2023-02-14T12:04:03;92613.84;;;12.88;36.51
53300;BME280;39187;48.476;8.310;2023-02-14T12:06:34;92613.31;;;13.11;36.40
53300;BME280;39187;48.476;8.310;2023-02-14T12:11:58;92604.06;;;13.22;35.81
53300;BME280;39187;48.476;8.310;2023-02-14T12:14:30;92606.06;;;13.11;35.85
53300;BME280;39187;48.476;8.310;2023-02-14T12:17:44;92606.81;;;13.12;36.00
53300;BME280;39187;48.476;8.310;2023-02-14T12:20:22;92597.59;;;13.23;35.93
53300;BME280;39187;48.476;8.310;2023-02-14T12:22:55;92603.06;;;13.02;35.92
53300;BME280;39187;48.476;8.310;2023-02-14T12:25:32;92593.47;;;13.08;35.62
53300;BME280;39187;48.476;8.310;2023-02-14T12:28:05;92596.63;;;12.96;35.93
53300;BME280;39187;48.476;8.310;2023-02-14T12:30:34;92589.94;;;13.22;35.22
53300;BME280;39187;48.476;8.310;2023-02-14T12:33:00;92589.50;;;13.27;35.26
53300;BME280;39187;48.476;8.310;2023-02-14T12:35:59;92593.84;;;13.10;35.38
53300;BME280;39187;48.476;8.310;2023-02-14T12:43:55;92578.41;;;12.80;35.55
53300;BME280;39187;48.476;8.310;2023-02-14T12:51:52;92581.63;;;13.13;35.50
53300;BME280;39187;48.476;8.310;2023-02-14T12:54:41;92574.34;;;13.17;35.85
53300;BME280;39187;48.476;8.310;2023-02-14T13:00:33;92579.63;;;12.69;36.60
53300;BME280;39187;48.476;8.310;2023-02-14T13:14:08;92556.44;;;13.07;35.53
53300;BME280;39187;48.476;8.310;2023-02-14T13:19:56;92546.81;;;12.72;35.98
53300;BME280;39187;48.476;8.310;2023-02-14T13:22:28;92555.66;;;12.62;36.63
53300;BME280;39187;48.476;8.310;2023-02-14T13:24:58;92549.88;;;12.70;36.21
53300;BME280;39187;48.476;8.310;2023-02-14T13:27:30;92546.28;;;12.88;36.22
53300;BME280;39187;48.476;8.310;2023-02-14T13:30:14;92547.03;;;12.92;36.05
53300;BME280;39187;48.476;8.310;2023-02-14T13:32:45;92545.38;;;12.60;35.97
53300;BME280;39187;48.476;8.310;2023-02-14T13:35:16;92542.38;;;12.51;36.72
53300;BME280;39187;48.476;8.310;2023-02-14T13:37:50;92549.09;;;12.70;36.09
53300;BME280;39187;48.476;8.310;2023-02-14T13:40:20;92539.13;;;12.77;35.78
53300;BME280;39187;48.476;8.310;2023-02-14T13:50:39;92539.81;;;12.89;36.55
53300;BME280;39187;48.476;8.310;2023-02-14T13:53:10;92532.50;;;12.48;36.79
53300;BME280;39187;48.476;8.310;2023-02-14T13:55:43;92529.31;;;12.67;37.03
53300;BME280;39187;48.476;8.310;2023-02-14T13:58:16;92526.50;;;12.81;36.68
53300;BME280;39187;48.476;8.310;2023-02-14T14:00:50;92527.16;;;12.48;36.86
53300;BME280;39187;48.476;8.310;2023-02-14T14:06:00;92522.94;;;12.51;37.04
53300;BME280;39187;48.476;8.310;2023-02-14T14:10:54;92527.06;;;12.59;37.20
53300;BME280;39187;48.476;8.310;2023-02-14T14:18:49;92527.38;;;12.68;36.91
53300;BME280;39187;48.476;8.310;2023-02-14T14:21:33;92524.69;;;12.71;37.25
53300;BME280;39187;48.476;8.310;2023-02-14T14:24:31;92520.25;;;12.51;37.52
53300;BME280;39187;48.476;8.310;2023-02-14T14:27:14;92522.50;;;12.59;37.50
53300;BME280;39187;48.476;8.310;2023-02-14T14:29:58;92519.84;;;12.56;37.64
53300;BME280;39187;48.476;8.310;2023-02-14T14:32:38;92525.22;;;12.52;37.74
53300;BME280;39187;48.476;8.310;2023-02-14T14:37:57;92526.78;;;12.42;37.81
53300;BME280;39187;48.476;8.310;2023-02-14T14:40:34;92515.13;;;12.19;38.82
53300;BME280;39187;48.476;8.310;2023-02-14T14:43:08;92520.09;;;12.17;38.81
53300;BME280;39187;48.476;8.310;2023-02-14T14:45:36;92516.91;;;12.36;38.64
53300;BME280;39187;48.476;8.310;2023-02-14T14:48:09;92518.06;;;12.38;38.29
53300;BME280;39187;48.476;8.310;2023-02-14T14:50:37;92516.16;;;12.39;38.47
53300;BME280;39187;48.476;8.310;2023-02-14T14:53:06;92520.72;;;12.38;37.80
53300;BME280;39187;48.476;8.310;2023-02-14T14:55:36;92516.53;;;12.41;37.69
53300;BME280;39187;48.476;8.310;2023-02-14T14:58:06;92510.44;;;12.37;37.37
53300;BME280;39187;48.476;8.310;2023-02-14T15:00:51;92517.72;;;12.33;37.58
53300;BME280;39187;48.476;8.310;2023-02-14T15:03:20;92515.78;;;12.37;37.27
53300;BME280;39187;48.476;8.310;2023-02-14T15:05:49;92508.16;;;12.35;37.41
53300;BME280;39187;48.476;8.310;2023-02-14T15:10:56;92516.63;;;12.23;37.64
53300;BME280;39187;48.476;8.310;2023-02-14T15:13:50;92517.13;;;12.04;38.55
53300;BME280;39187;48.476;8.310;2023-02-14T15:19:17;92519.19;;;11.61;46.39
53300;BME280;39187;48.476;8.310;2023-02-14T15:21:46;92530.66;;;11.47;47.90
53300;BME280;39187;48.476;8.310;2023-02-14T15:24:14;92528.44;;;11.28;49.15
53300;BME280;39187;48.476;8.310;2023-02-14T15:26:42;92523.19;;;10.82;50.75
53300;BME280;39187;48.476;8.310;2023-02-14T15:29:29;92531.94;;;11.07;51.08
53300;BME280;39187;48.476;8.310;2023-02-14T15:31:57;92523.53;;;11.09;50.48
53300;BME280;39187;48.476;8.310;2023-02-14T15:34:27;92518.19;;;11.16;50.46
53300;BME280;39187;48.476;8.310;2023-02-14T15:36:55;92521.59;;;11.31;50.11
53300;BME280;39187;48.476;8.310;2023-02-14T15:39:35;92527.72;;;11.24;50.43